Terminal Aerodrome Forecast
Issued by NWS

Home | Current Version | Previous Version | Text Only | Print | Product List | Glossary On
Versions: 1 2 3 4 5 6 7 8 9 10 11 12 13 14 15 16 17 18 19 20 21 22 23 24
000
FTUS45 KABQ 310700 AAA
TAFROW
TAF AMD
KROW 310749Z 3108/0106 36008KT P6SM VCTS SCT030 BKN060CB
      TEMPO 3108/3110 -RA BKN030
     FM311300 01007KT P6SM BKN050
     FM312200 09010KT P6SM OVC050
     FM010300 15010KT P6SM VCSH OVC050=

USA.gov is the U.S. government's official web portal to all federal, state and local government web resources and services.